createdAt,value
2023-02-14T00:00:23.131Z,6.60
2023-02-14T00:03:13.698Z,6.10
2023-02-14T00:05:42.646Z,25.10
2023-02-14T00:08:11.777Z,5.90
2023-02-14T00:10:42.376Z,6.00
2023-02-14T00:13:11.661Z,5.40
2023-02-14T00:15:41.204Z,5.80
2023-02-14T00:18:10.599Z,6.20
2023-02-14T00:20:39.948Z,6.10
2023-02-14T00:23:09.322Z,7.90
2023-02-14T00:25:38.178Z,7.60
2023-02-14T00:28:07.087Z,11.50
2023-02-14T00:30:35.735Z,11.30
2023-02-14T00:33:04.621Z,8.80
2023-02-14T00:35:33.511Z,8.90
2023-02-14T00:38:02.816Z,8.10
2023-02-14T00:40:31.522Z,8.00
2023-02-14T00:43:00.373Z,9.20
2023-02-14T00:45:29.498Z,6.80
2023-02-14T00:47:58.719Z,5.10
2023-02-14T00:50:27.340Z,6.90
2023-02-14T00:52:56.433Z,7.00
2023-02-14T00:55:25.985Z,7.50
2023-02-14T00:57:54.813Z,7.70
2023-02-14T01:00:24.200Z,8.10
2023-02-14T01:02:53.216Z,8.70
2023-02-14T01:05:22.115Z,19.90
2023-02-14T01:07:51.187Z,14.00
2023-02-14T01:10:20.497Z,7.90
2023-02-14T01:12:49.560Z,17.40
2023-02-14T01:15:19.019Z,16.90
2023-02-14T01:17:48.006Z,19.70
2023-02-14T01:20:17.795Z,18.30
2023-02-14T01:22:46.822Z,11.80
2023-02-14T01:25:16.154Z,6.60
2023-02-14T01:27:45.223Z,6.20
2023-02-14T01:30:15.264Z,6.30
2023-02-14T01:32:44.973Z,6.30
2023-02-14T01:35:14.397Z,6.80
2023-02-14T01:37:43.605Z,7.20
2023-02-14T01:40:14.095Z,8.60
2023-02-14T01:42:43.009Z,8.40
2023-02-14T01:45:20.503Z,6.60
2023-02-14T01:47:54.296Z,5.70
2023-02-14T01:50:28.721Z,5.10
2023-02-14T01:53:06.258Z,4.60
2023-02-14T01:55:40.659Z,4.60
2023-02-14T01:58:15.516Z,4.00
2023-02-14T02:01:00.668Z,4.20
2023-02-14T02:03:35.089Z,4.70
2023-02-14T02:06:22.728Z,4.20
2023-02-14T02:09:16.345Z,4.10
2023-02-14T02:11:46.161Z,5.30
2023-02-14T02:14:21.658Z,6.10
2023-02-14T02:17:03.073Z,15.70
2023-02-14T02:19:53.968Z,4.80
2023-02-14T02:22:42.609Z,6.20
2023-02-14T02:25:34.502Z,14.60
2023-02-14T02:28:18.602Z,37.80
2023-02-14T02:31:24.880Z,44.30
2023-02-14T02:34:02.682Z,31.30
2023-02-14T02:36:32.434Z,12.80
2023-02-14T02:39:21.342Z,29.40
2023-02-14T02:42:13.122Z,6.80
2023-02-14T02:45:10.007Z,18.20
2023-02-14T02:48:05.510Z,13.30
2023-02-14T02:51:07.722Z,9.20
2023-02-14T02:53:36.532Z,6.50
2023-02-14T02:56:35.188Z,5.10
2023-02-14T02:59:07.025Z,5.30
2023-02-14T03:01:42.789Z,4.80
2023-02-14T03:04:32.024Z,5.30
2023-02-14T03:07:01.447Z,4.90
2023-02-14T03:09:30.580Z,4.70
2023-02-14T03:12:11.396Z,4.40
2023-02-14T03:14:49.224Z,4.50
2023-02-14T03:17:50.266Z,4.60
2023-02-14T03:20:32.211Z,4.40
2023-02-14T03:23:22.861Z,4.10
2023-02-14T03:26:31.152Z,4.20
2023-02-14T03:29:09.048Z,4.40
2023-02-14T03:31:43.742Z,4.40
2023-02-14T03:34:31.635Z,6.50
2023-02-14T03:37:14.923Z,8.80
2023-02-14T03:39:46.446Z,7.70
2023-02-14T03:42:32.186Z,7.50
2023-02-14T03:45:04.365Z,11.40
2023-02-14T03:47:37.434Z,8.80
2023-02-14T03:50:19.332Z,30.40
2023-02-14T03:52:52.775Z,9.50
2023-02-14T03:55:32.075Z,7.90
2023-02-14T03:58:13.171Z,6.80
2023-02-14T04:00:44.062Z,10.00
2023-02-14T04:03:15.815Z,9.40
2023-02-14T04:05:47.169Z,7.90
2023-02-14T04:08:23.404Z,9.00
2023-02-14T04:10:53.542Z,11.40
2023-02-14T04:13:22.320Z,8.30
2023-02-14T04:15:51.223Z,6.50
2023-02-14T04:18:38.860Z,5.50
2023-02-14T04:21:08.150Z,4.90
2023-02-14T04:23:37.124Z,4.90
2023-02-14T04:26:06.094Z,5.30
2023-02-14T04:28:35.453Z,5.50
2023-02-14T04:31:07.081Z,5.10
2023-02-14T04:33:36.017Z,4.40
2023-02-14T04:36:05.217Z,5.70
2023-02-14T04:38:34.090Z,8.10
2023-02-14T04:41:03.193Z,10.30
2023-02-14T04:43:31.927Z,8.30
2023-02-14T04:46:00.679Z,10.20
2023-02-14T04:48:29.440Z,8.60
2023-02-14T04:50:58.925Z,8.80
2023-02-14T04:53:28.214Z,12.00
2023-02-14T04:55:57.308Z,8.60
2023-02-14T04:58:26.118Z,8.50
2023-02-14T05:00:55.162Z,8.00
2023-02-14T05:03:24.289Z,7.40
2023-02-14T05:05:53.261Z,6.90
2023-02-14T05:08:22.353Z,7.80
2023-02-14T05:10:51.134Z,7.90
2023-02-14T05:13:20.019Z,34.20
2023-02-14T05:15:48.689Z,76.70
2023-02-14T05:18:17.720Z,97.10
2023-02-14T05:20:50.703Z,68.50
2023-02-14T05:23:20.176Z,10.10
2023-02-14T05:25:50.028Z,7.60
2023-02-14T05:28:20.327Z,7.60
2023-02-14T05:30:52.081Z,13.00
2023-02-14T05:33:21.392Z,7.40
2023-02-14T05:35:50.366Z,18.40
2023-02-14T05:38:19.795Z,20.40
2023-02-14T05:40:48.707Z,20.50
2023-02-14T05:43:17.535Z,19.80
2023-02-14T05:45:46.363Z,9.10
2023-02-14T05:48:16.368Z,9.90
2023-02-14T05:50:46.060Z,11.50
2023-02-14T05:53:15.730Z,10.50
2023-02-14T05:55:45.140Z,10.10
2023-02-14T05:58:14.135Z,8.10
2023-02-14T06:00:42.928Z,6.60
2023-02-14T06:03:11.637Z,6.40
2023-02-14T06:05:41.072Z,5.30
2023-02-14T06:08:10.011Z,6.50
2023-02-14T06:10:38.989Z,7.20
2023-02-14T06:13:11.144Z,8.90
2023-02-14T06:15:39.891Z,10.00
2023-02-14T06:18:09.109Z,11.20
2023-02-14T06:20:37.955Z,12.10
2023-02-14T06:23:06.790Z,13.70
2023-02-14T06:25:36.243Z,13.00
2023-02-14T06:28:05.365Z,11.20
2023-02-14T06:30:35.428Z,8.50
2023-02-14T06:33:04.716Z,13.50
2023-02-14T06:35:33.519Z,26.30
2023-02-14T06:38:02.391Z,20.40
2023-02-14T06:40:31.259Z,11.70
2023-02-14T06:43:00.041Z,13.80
2023-02-14T06:45:29.263Z,11.10
2023-02-14T06:47:58.084Z,17.00
2023-02-14T06:50:27.115Z,13.80
2023-02-14T06:52:56.036Z,11.70
2023-02-14T06:55:25.254Z,11.10
2023-02-14T06:57:53.946Z,12.60
2023-02-14T07:00:23.295Z,14.80
2023-02-14T07:02:52.867Z,13.20
2023-02-14T07:05:22.503Z,16.50
2023-02-14T07:07:52.310Z,18.40
2023-02-14T07:10:21.716Z,15.70
2023-02-14T07:12:50.623Z,16.20
2023-02-14T07:15:19.997Z,11.80
2023-02-14T07:17:48.628Z,12.00
2023-02-14T07:20:18.795Z,8.00
2023-02-14T07:22:47.787Z,6.60
2023-02-14T07:25:16.564Z,6.70
2023-02-14T07:27:45.974Z,7.70
2023-02-14T07:30:16.403Z,9.30
2023-02-14T07:32:45.986Z,8.20
2023-02-14T07:35:16.316Z,7.50
2023-02-14T07:37:46.283Z,7.30
2023-02-14T07:40:16.894Z,7.00
2023-02-14T07:42:54.765Z,7.50
2023-02-14T07:45:27.157Z,7.10
2023-02-14T07:47:59.691Z,7.30
2023-02-14T07:50:30.949Z,7.50
2023-02-14T07:53:01.090Z,6.70
2023-02-14T07:55:31.407Z,7.40
2023-02-14T07:58:00.767Z,7.90
2023-02-14T08:00:31.318Z,8.00
2023-02-14T08:03:01.189Z,7.50
2023-02-14T08:05:31.459Z,7.40
2023-02-14T08:08:00.903Z,8.00
2023-02-14T08:10:30.317Z,7.60
2023-02-14T08:13:00.512Z,8.30
2023-02-14T08:15:51.792Z,8.30
2023-02-14T08:18:27.607Z,8.40
2023-02-14T08:20:57.957Z,8.90
2023-02-14T08:23:28.147Z,9.30
2023-02-14T08:25:58.449Z,8.90
2023-02-14T08:28:28.734Z,9.10
2023-02-14T08:30:59.637Z,9.00
2023-02-14T08:33:29.004Z,9.60
2023-02-14T08:35:58.478Z,9.30
2023-02-14T08:38:27.215Z,8.90
2023-02-14T08:41:03.052Z,9.00
2023-02-14T08:43:34.445Z,9.10
2023-02-14T08:46:04.389Z,10.10
2023-02-14T08:48:38.801Z,10.00
2023-02-14T08:51:11.191Z,9.70
2023-02-14T08:53:42.994Z,10.10
2023-02-14T08:56:15.222Z,9.60
2023-02-14T08:58:44.863Z,10.30
2023-02-14T09:01:19.458Z,10.70
2023-02-14T09:03:51.591Z,10.30
2023-02-14T09:06:21.380Z,10.70
2023-02-14T09:08:54.123Z,10.50
2023-02-14T09:11:26.091Z,11.10
2023-02-14T09:13:56.868Z,11.30
2023-02-14T09:16:26.615Z,11.00
2023-02-14T09:18:57.216Z,10.60
2023-02-14T09:21:30.410Z,11.00
2023-02-14T09:23:59.712Z,11.50
2023-02-14T09:26:29.384Z,11.40
2023-02-14T09:28:59.201Z,11.40
2023-02-14T09:31:28.029Z,10.80
2023-02-14T09:33:57.759Z,10.70
2023-02-14T09:36:27.307Z,10.40
2023-02-14T09:38:56.740Z,10.00
2023-02-14T09:41:32.002Z,10.30
2023-02-14T09:44:13.321Z,10.30
2023-02-14T09:46:51.190Z,10.00
2023-02-14T09:49:33.757Z,12.70
2023-02-14T09:52:05.906Z,12.80
2023-02-14T09:54:38.187Z,26.50
2023-02-14T09:57:10.910Z,10.10
2023-02-14T09:59:52.616Z,10.20
2023-02-14T10:02:35.174Z,14.00
2023-02-14T10:05:16.130Z,10.60
2023-02-14T10:08:09.394Z,15.40
2023-02-14T10:10:43.917Z,10.20
2023-02-14T10:13:23.766Z,15.00
2023-02-14T10:16:02.755Z,9.70
2023-02-14T10:19:00.063Z,8.80
2023-02-14T10:21:38.561Z,8.40
2023-02-14T10:24:28.286Z,8.40
2023-02-14T10:29:46.994Z,8.20
2023-02-14T10:32:26.540Z,8.60
2023-02-14T10:35:01.661Z,8.60
2023-02-14T10:37:59.734Z,8.80
2023-02-14T10:41:12.989Z,8.20
2023-02-14T10:44:01.470Z,8.20
2023-02-14T10:47:24.370Z,8.10
2023-02-14T10:50:09.085Z,8.00
2023-02-14T10:52:40.684Z,8.40
2023-02-14T10:55:59.170Z,8.90
2023-02-14T10:58:32.547Z,8.40
2023-02-14T11:01:17.923Z,7.70
2023-02-14T11:04:04.290Z,7.60
2023-02-14T11:06:35.620Z,6.70
2023-02-14T11:09:05.282Z,6.90
2023-02-14T11:11:58.560Z,6.70
2023-02-14T11:14:32.818Z,6.80
2023-02-14T11:17:46.519Z,6.30
2023-02-14T11:20:26.905Z,6.50
2023-02-14T11:22:57.130Z,6.40
2023-02-14T11:25:32.960Z,5.90
2023-02-14T11:28:09.208Z,6.30
2023-02-14T11:30:46.264Z,6.20
2023-02-14T11:33:35.608Z,5.80
2023-02-14T11:36:10.913Z,5.60
2023-02-14T11:38:41.757Z,6.00
2023-02-14T11:41:16.474Z,5.40
2023-02-14T11:43:49.708Z,5.40
2023-02-14T11:46:21.801Z,5.50
2023-02-14T11:48:58.359Z,5.70
2023-02-14T11:51:34.312Z,5.20
2023-02-14T11:54:06.506Z,5.30
2023-02-14T11:56:54.948Z,4.90
2023-02-14T11:59:36.325Z,4.20
2023-02-14T12:02:14.927Z,4.60
2023-02-14T12:04:47.588Z,4.20
2023-02-14T12:07:28.529Z,4.00
2023-02-14T12:10:16.123Z,4.30
2023-02-14T12:12:57.010Z,3.70
2023-02-14T12:15:38.284Z,4.20
2023-02-14T12:18:40.341Z,3.90
2023-02-14T12:21:24.714Z,4.20
2023-02-14T12:24:15.092Z,3.20
2023-02-14T12:26:50.292Z,4.00
2023-02-14T12:29:28.825Z,4.00
2023-02-14T12:32:03.024Z,3.30
2023-02-14T12:34:32.641Z,3.40
2023-02-14T12:37:40.485Z,3.50
2023-02-14T12:40:29.506Z,4.00
2023-02-14T12:42:59.811Z,3.60
2023-02-14T12:45:55.289Z,3.90
2023-02-14T12:48:56.216Z,4.20
2023-02-14T12:51:51.278Z,3.70
2023-02-14T12:54:40.571Z,4.00
2023-02-14T12:57:22.495Z,3.90
2023-02-14T13:00:16.427Z,3.90
2023-02-14T13:03:10.132Z,3.80
2023-02-14T13:05:51.391Z,4.00
2023-02-14T13:09:02.098Z,3.70
2023-02-14T13:12:02.737Z,3.70
2023-02-14T13:15:08.604Z,3.20
2023-02-14T13:17:47.085Z,3.80
2023-02-14T13:20:28.907Z,4.70
2023-02-14T13:23:04.738Z,3.30
2023-02-14T13:25:41.524Z,2.90
2023-02-14T13:28:16.854Z,3.10
2023-02-14T13:30:46.201Z,3.30
2023-02-14T13:33:39.152Z,2.90
2023-02-14T13:36:12.858Z,3.00
2023-02-14T13:41:31.324Z,4.90
2023-02-14T13:44:03.234Z,3.50
2023-02-14T13:46:34.784Z,3.10
2023-02-14T13:49:24.981Z,3.70
2023-02-14T13:51:57.743Z,2.90
2023-02-14T13:54:36.328Z,4.10
2023-02-14T13:57:37.004Z,4.60
2023-02-14T14:00:19.442Z,3.70
2023-02-14T14:02:54.192Z,4.70
2023-02-14T14:05:38.541Z,3.20
2023-02-14T14:08:23.840Z,5.70
2023-02-14T14:10:55.864Z,4.00
2023-02-14T14:13:44.392Z,3.60
2023-02-14T14:16:29.279Z,3.10
2023-02-14T14:19:22.296Z,3.00
2023-02-14T14:22:10.364Z,2.70
2023-02-14T14:24:41.915Z,2.80
2023-02-14T14:27:20.452Z,3.30
2023-02-14T14:29:59.074Z,2.70
2023-02-14T14:32:37.676Z,3.20
2023-02-14T14:35:16.490Z,2.90
2023-02-14T14:37:57.776Z,2.90
2023-02-14T14:40:30.511Z,2.90
2023-02-14T14:43:14.881Z,2.70
2023-02-14T14:45:47.154Z,2.60
2023-02-14T14:48:41.621Z,2.90
2023-02-14T14:51:29.002Z,2.90
2023-02-14T14:54:05.316Z,3.00
2023-02-14T14:56:45.349Z,3.30
2023-02-14T14:59:17.642Z,3.30
2023-02-14T15:01:46.947Z,3.40
2023-02-14T15:04:35.868Z,3.40
2023-02-14T15:07:28.448Z,3.90
2023-02-14T15:09:58.273Z,3.70
2023-02-14T15:12:46.471Z,4.20
2023-02-14T15:15:19.477Z,4.00
2023-02-14T15:17:48.853Z,3.80
2023-02-14T15:20:24.363Z,4.20
2023-02-14T15:22:54.796Z,4.10
2023-02-14T15:25:29.673Z,4.40
2023-02-14T15:28:01.897Z,4.60
2023-02-14T15:30:35.208Z,4.60
2023-02-14T15:33:09.505Z,4.80
2023-02-14T15:35:42.976Z,5.00
2023-02-14T15:38:14.632Z,4.80
2023-02-14T15:40:45.461Z,5.10
2023-02-14T15:43:32.698Z,4.60
2023-02-14T15:46:43.646Z,4.90
2023-02-14T15:49:21.470Z,4.80
2023-02-14T15:51:52.371Z,4.40
2023-02-14T15:54:32.647Z,5.10
2023-02-14T15:57:06.566Z,5.40
2023-02-14T15:59:43.815Z,5.50
2023-02-14T16:02:39.026Z,6.00
2023-02-14T16:05:19.261Z,5.90
2023-02-14T16:08:08.423Z,5.30
2023-02-14T16:10:40.236Z,6.30
2023-02-14T16:13:15.828Z,5.70
2023-02-14T16:16:05.390Z,6.20
2023-02-14T16:18:39.824Z,6.50
2023-02-14T16:21:33.227Z,5.90
2023-02-14T16:24:11.244Z,7.10
2023-02-14T16:26:43.555Z,6.40
2023-02-14T16:29:16.639Z,7.20
2023-02-14T16:34:40.836Z,10.00
2023-02-14T16:37:39.394Z,11.00
2023-02-14T16:40:14.280Z,12.50
2023-02-14T16:42:44.445Z,10.30
2023-02-14T16:45:19.419Z,9.60
2023-02-14T16:47:49.418Z,9.70
2023-02-14T16:50:21.640Z,9.70
2023-02-14T16:52:52.875Z,10.70
2023-02-14T16:55:22.388Z,10.00
2023-02-14T16:57:53.378Z,11.00
2023-02-14T17:00:24.460Z,13.50
2023-02-14T17:03:05.207Z,11.20
2023-02-14T17:05:37.250Z,12.70
2023-02-14T17:08:11.621Z,14.90
2023-02-14T17:10:44.261Z,14.30
2023-02-14T17:13:16.762Z,13.00
2023-02-14T17:15:46.938Z,9.80
2023-02-14T17:18:18.964Z,7.20
2023-02-14T17:20:50.360Z,7.20
2023-02-14T17:23:21.768Z,6.60
2023-02-14T17:25:52.252Z,8.30
2023-02-14T17:28:22.671Z,28.10
2023-02-14T17:30:52.926Z,22.90
2023-02-14T17:33:23.290Z,26.50
2023-02-14T17:35:53.178Z,19.20
2023-02-14T17:38:22.755Z,20.80
2023-02-14T17:40:52.414Z,23.90
2023-02-14T17:43:21.862Z,13.10
2023-02-14T17:45:51.494Z,17.60
2023-02-14T17:48:21.691Z,18.00
2023-02-14T17:50:51.343Z,16.90
2023-02-14T17:53:21.707Z,17.20
2023-02-14T17:55:52.762Z,15.80
2023-02-14T17:58:23.133Z,17.00
2023-02-14T18:00:55.917Z,14.90
2023-02-14T18:03:26.086Z,13.90
2023-02-14T18:05:59.430Z,12.10
2023-02-14T18:08:35.486Z,11.70
2023-02-14T18:11:07.126Z,11.60
2023-02-14T18:13:38.043Z,13.70
2023-02-14T18:16:14.017Z,27.50
2023-02-14T18:18:47.244Z,21.80
2023-02-14T18:21:21.851Z,30.30
2023-02-14T18:23:51.152Z,28.50
2023-02-14T18:26:21.068Z,16.50
2023-02-14T18:28:51.746Z,22.50
2023-02-14T18:31:21.343Z,43.10
2023-02-14T18:33:51.640Z,62.30
2023-02-14T18:36:24.798Z,49.70
2023-02-14T18:38:55.685Z,16.40
2023-02-14T18:41:26.780Z,11.50
2023-02-14T18:43:55.939Z,9.10
2023-02-14T18:46:28.118Z,7.20
2023-02-14T18:48:58.930Z,7.60
2023-02-14T18:51:34.692Z,7.20
2023-02-14T18:54:05.304Z,7.20
2023-02-14T18:56:38.179Z,7.60
2023-02-14T18:59:09.922Z,10.90
2023-02-14T19:01:43.152Z,30.90
2023-02-14T19:04:13.706Z,30.90
2023-02-14T19:06:44.231Z,14.40
2023-02-14T19:09:17.927Z,9.80
2023-02-14T19:11:47.272Z,10.00
2023-02-14T19:14:20.187Z,8.40
2023-02-14T19:16:53.262Z,9.40
2023-02-14T19:19:23.673Z,9.00
2023-02-14T19:21:54.316Z,7.60
2023-02-14T19:24:26.065Z,8.50
2023-02-14T19:26:56.615Z,8.70
2023-02-14T19:29:25.673Z,10.20
2023-02-14T19:31:56.010Z,11.30
2023-02-14T19:34:30.073Z,8.50
2023-02-14T19:37:00.985Z,9.30
2023-02-14T19:39:31.474Z,8.80
2023-02-14T19:42:01.535Z,8.30
2023-02-14T19:44:31.458Z,9.20
2023-02-14T19:47:09.820Z,12.90
2023-02-14T19:49:46.305Z,10.30
2023-02-14T19:52:25.728Z,9.60
2023-02-14T19:54:58.440Z,8.80
2023-02-14T19:57:28.262Z,9.60
2023-02-14T19:59:57.437Z,11.60
2023-02-14T20:02:26.644Z,15.40
2023-02-14T20:04:59.500Z,19.20
2023-02-14T20:07:28.575Z,12.10
2023-02-14T20:09:57.827Z,14.00
2023-02-14T20:12:27.373Z,11.10
2023-02-14T20:14:57.813Z,10.20
2023-02-14T20:17:28.536Z,9.40
2023-02-14T20:19:57.969Z,13.00
2023-02-14T20:22:28.972Z,12.90
2023-02-14T20:24:59.026Z,33.00
2023-02-14T20:27:29.612Z,11.70
2023-02-14T20:29:59.373Z,16.10
2023-02-14T20:32:29.755Z,9.40
2023-02-14T20:35:00.102Z,9.00
2023-02-14T20:37:30.723Z,9.10
2023-02-14T20:40:01.268Z,9.30
2023-02-14T20:42:31.988Z,8.60
2023-02-14T20:45:02.625Z,9.20
2023-02-14T20:47:32.180Z,8.80
2023-02-14T20:50:01.449Z,9.10
2023-02-14T20:52:30.809Z,10.30
2023-02-14T20:55:01.203Z,16.50
2023-02-14T20:57:30.797Z,19.40
2023-02-14T20:59:59.707Z,24.80
2023-02-14T21:02:28.635Z,28.60
2023-02-14T21:05:00.600Z,15.70
2023-02-14T21:07:31.490Z,13.90
2023-02-14T21:10:01.012Z,11.60
2023-02-14T21:12:30.655Z,10.80
2023-02-14T21:14:59.209Z,11.30
2023-02-14T21:17:28.749Z,10.40
2023-02-14T21:19:58.187Z,10.00
2023-02-14T21:22:27.809Z,9.80
2023-02-14T21:24:57.595Z,9.90
2023-02-14T21:27:27.442Z,10.50
2023-02-14T21:29:57.771Z,10.10
2023-02-14T21:32:28.941Z,11.10
2023-02-14T21:34:58.615Z,9.40
2023-02-14T21:37:27.999Z,9.70
2023-02-14T21:39:59.634Z,8.90
2023-02-14T21:42:30.279Z,8.90
2023-02-14T21:45:19.546Z,8.90
2023-02-14T21:48:09.176Z,9.70
2023-02-14T21:50:39.622Z,8.90
2023-02-14T21:53:09.928Z,8.60
2023-02-14T21:55:39.562Z,8.50
2023-02-14T21:58:08.637Z,8.60
2023-02-14T22:00:38.073Z,8.40
2023-02-14T22:03:07.767Z,8.60
2023-02-14T22:05:37.475Z,8.80
2023-02-14T22:08:07.735Z,12.20
2023-02-14T22:10:40.970Z,12.70
2023-02-14T22:13:10.706Z,10.00
2023-02-14T22:15:43.008Z,9.30
2023-02-14T22:18:14.416Z,11.00
2023-02-14T22:20:45.365Z,11.30
2023-02-14T22:23:14.572Z,11.90
2023-02-14T22:25:43.612Z,12.70
2023-02-14T22:28:13.574Z,13.20
2023-02-14T22:30:43.041Z,12.80
2023-02-14T22:33:12.629Z,12.90
2023-02-14T22:35:43.020Z,14.60
2023-02-14T22:38:12.917Z,17.90
2023-02-14T22:40:44.225Z,15.40
2023-02-14T22:43:14.449Z,13.80
2023-02-14T22:45:45.754Z,11.70
2023-02-14T22:48:15.691Z,13.70
2023-02-14T22:50:45.332Z,10.60
2023-02-14T22:53:15.275Z,10.00
2023-02-14T22:55:44.338Z,11.60
2023-02-14T22:58:13.516Z,12.40
2023-02-14T23:00:45.255Z,12.50
2023-02-14T23:03:15.625Z,17.20
2023-02-14T23:05:46.155Z,19.30
2023-02-14T23:08:16.120Z,19.10
2023-02-14T23:10:45.680Z,16.40
2023-02-14T23:13:34.046Z,26.30
2023-02-14T23:16:21.879Z,37.80
2023-02-14T23:19:11.981Z,103.30
2023-02-14T23:21:56.326Z,60.00
2023-02-14T23:24:25.851Z,27.90
2023-02-14T23:26:56.131Z,18.40
2023-02-14T23:29:24.993Z,15.80
2023-02-14T23:31:54.245Z,28.40
2023-02-14T23:34:29.182Z,22.30
2023-02-14T23:36:59.775Z,14.90
2023-02-14T23:39:29.343Z,10.20
2023-02-14T23:41:57.995Z,10.20
2023-02-14T23:44:28.866Z,13.30
2023-02-14T23:47:01.129Z,11.10
2023-02-14T23:49:31.502Z,15.60
2023-02-14T23:52:00.781Z,10.70
2023-02-14T23:54:29.529Z,18.90
2023-02-14T23:56:58.575Z,15.60
2023-02-14T23:59:27.639Z,13.10
